Flight Track Log - Related Links

Times and Time Zones

All times are in EDT time to prevent confusion due to time zone crossing. See the SWA1719 flight status page for this flight to view local times or setup timezone preferences in your user account.

Time Position Orientation Groundspeed Altitude Reporting Facility
EDT Latitude Longitude Course Direction KTS MPH feet Rate Location/Type
Tue 09:03:53 AM 35.0422 -106.5847 93° East 176 203 5,800  Level Albuquerque Center
Tue 09:04:10 AM 35.0414 -106.5669 93° East 173 199 6,400 1,615 Climbing Albuquerque Center
Tue 09:05:11 AM 34.9981 -106.5261 142° Southeast 212 244 7,900 1,339 Climbing Albuquerque Center
Tue 09:06:11 AM 34.9392 -106.5142 171° South 242 278 9,100 1,700 Climbing Albuquerque Center
Tue 09:07:11 AM 34.8614 -106.5172 182° South 264 304 11,300 2,479 Climbing Albuquerque Center
Tue 09:08:12 AM 34.7881 -106.4753 155° Southeast 315 362 14,100 2,557 Climbing Albuquerque Center
Tue 09:09:13 AM 34.7406 -106.3703 119° Southeast 348 400 16,500 2,579 Climbing Albuquerque Center
Tue 09:10:13 AM 34.6886 -106.2597 120° Southeast 370 426 19,300 2,975 Climbing Albuquerque Center
Tue 09:11:14 AM 34.6242 -106.1208 119° Southeast 383 441 22,500 2,803 Climbing Albuquerque Center
Tue 09:12:15 AM 34.5672 -105.9992 120° Southeast 402 463 25,000 2,361 Climbing Albuquerque Center
Tue 09:13:16 AM 34.5081 -105.8753 120° Southeast 416 479 27,300 2,182 Climbing Albuquerque Center
Tue 09:14:16 AM 34.4492 -105.7517 120° Southeast 420 483 29,400 2,083 Climbing Albuquerque Center
Tue 09:15:17 AM 34.3889 -105.6261 120° Southeast 426 490 31,500 2,115 Climbing Albuquerque Center
Tue 09:16:18 AM 34.3306 -105.5031 120° Southeast 422 486 33,700 1,869 Climbing Albuquerque Center
Tue 09:17:19 AM 34.2725 -105.3839 120° Southeast 414 476 35,300 1,240 Climbing Albuquerque Center
Tue 09:18:19 AM 34.2161 -105.2642 120° Southeast 410 472 36,200 1,041 Climbing Albuquerque Center
Tue 09:19:20 AM 34.1558 -105.1400 120° Southeast 415 478 37,400 1,230 Climbing Albuquerque Center
Tue 09:20:21 AM 34.0953 -105.0144 120° Southeast 424 488 38,700 787 Climbing Albuquerque Center
Tue 09:21:22 AM 34.0331 -104.8861 120° Southeast 431 496 39,000 148 Climbing Albuquerque Center
Tue 09:22:23 AM 33.9708 -104.7617 121° Southeast 432 497 39,000  Level Albuquerque Center
Tue 09:23:24 AM 33.9047 -104.6281 121° Southeast 431 496 39,000  Level Albuquerque Center
Tue 09:24:25 AM 33.8428 -104.5019 121° Southeast 436 502 39,000  Level Albuquerque Center
Tue 09:25:25 AM 33.7808 -104.3756 121° Southeast 439 505 39,000  Level Albuquerque Center
Tue 09:26:26 AM 33.7164 -104.2456 121° Southeast 449 517 39,000  Level Albuquerque Center
Tue 09:27:27 AM 33.6525 -104.1178 121° Southeast 448 516 39,000  Level Albuquerque Center
Tue 09:28:28 AM 33.5886 -103.9867 120° Southeast 453 521 39,000  Level Albuquerque Center
Tue 09:29:29 AM 33.5175 -103.8456 121° Southeast 457 526 39,000  Level Albuquerque Center
Tue 09:30:30 AM 33.4528 -103.7144 121° Southeast 457 526 39,000  Level Albuquerque Center
Tue 09:31:31 AM 33.3939 -103.5953 121° Southeast 461 531 39,000  Level Albuquerque Center
Tue 09:32:32 AM 33.3314 -103.4619 119° Southeast 461 531 39,000  Level Albuquerque Center
Tue 09:33:33 AM 33.2611 -103.3367 124° Southeast 457 526 39,000  Level Albuquerque Center
Tue 09:34:34 AM 33.1953 -103.2078 121° Southeast 455 524 39,000  Level Albuquerque Center
Tue 09:35:22 AM 33.1386 -103.0992 122° Southeast 459 528 39,000  Level Fort Worth Center
Tue 09:36:22 AM 33.0714 -102.9683 121° Southeast 464 534 39,000  Level Fort Worth Center
Tue 09:37:22 AM 33.0081 -102.8381 120° Southeast 464 534 39,000  Level Fort Worth Center
Tue 09:38:22 AM 32.9386 -102.7078 122° Southeast 469 540 39,000  Level Fort Worth Center
Tue 09:39:22 AM 32.8711 -102.5750 121° Southeast 469 540 39,000  Level Fort Worth Center
Tue 09:40:22 AM 32.8033 -102.4428 121° Southeast 469 540 39,000  Level Fort Worth Center
Tue 09:41:22 AM 32.7336 -102.3056 121° Southeast 476 548 39,000  Level Fort Worth Center
Tue 09:42:22 AM 32.6617 -102.1733 123° Southeast 476 548 39,000  Level Fort Worth Center
Tue 09:43:22 AM 32.5833 -102.0311 123° Southeast 470 541 39,000  Level Fort Worth Center
Tue 09:44:22 AM 32.5131 -101.8994 122° Southeast 470 541 39,000  Level Fort Worth Center
Tue 09:45:22 AM 32.4444 -101.7728 123° Southeast 470 541 39,000  Level Fort Worth Center
Tue 09:46:22 AM 32.3758 -101.6442 122° Southeast 470 541 39,000  Level Fort Worth Center
Tue 09:47:22 AM 32.3069 -101.5156 122° Southeast 470 541 39,000  Level Fort Worth Center
Tue 09:48:22 AM 32.2381 -101.3872 122° Southeast 470 541 39,000  Level Fort Worth Center
Tue 09:49:22 AM 32.1847 -101.2867 122° Southeast 470 541 39,000  Level Fort Worth Center
Tue 09:50:22 AM 32.1000 -101.1236 121° Southeast 475 547 39,000  Level Fort Worth Center
Tue 09:51:22 AM 32.0328 -100.9961 122° Southeast 475 547 39,000  Level Fort Worth Center
Tue 09:52:22 AM 31.9669 -100.8858 125° Southeast 465 535 39,000  Level Fort Worth Center
Tue 09:53:22 AM 31.8936 -100.7386 120° Southeast 465 535 39,000  Level Fort Worth Center
Tue 09:54:22 AM 31.8256 -100.6261 125° Southeast 471 542 39,000  Level Fort Worth Center
Tue 09:55:22 AM 31.7517 -100.4964 124° Southeast 471 542 39,000  Level Fort Worth Center
Tue 09:56:22 AM 31.6797 -100.3647 123° Southeast 471 542 39,000  Level Fort Worth Center
Tue 09:57:22 AM 31.6056 -100.2258 122° Southeast 471 542 39,000  Level Fort Worth Center
Tue 09:59:21 AM 31.4775 -99.9939 123° Southeast 468 539 39,000  Level Houston Center
Tue 10:00:23 AM 31.3931 -99.8394 123° Southeast 467 537 39,000  Level Houston Center
Tue 10:01:25 AM 31.3192 -99.7106 124° Southeast 475 547 39,000  Level Houston Center
Tue 10:02:27 AM 31.2486 -99.5828 123° Southeast 470 541 39,000  Level Houston Center
Tue 10:03:29 AM 31.1972 -99.4372 112° Southeast 494 568 39,000  Level Houston Center
Tue 10:04:30 AM 31.1667 -99.2839 103° East 488 562 39,000  Level Houston Center
Tue 10:05:32 AM 31.1317 -99.1172 104° East 484 557 39,000  Level Houston Center
Tue 10:06:34 AM 31.0997 -98.9644 104° East 482 555 39,000  Level Houston Center
Tue 10:07:36 AM 31.0661 -98.8097 104° East 485 558 39,000  Level Houston Center
Tue 10:08:38 AM 31.0333 -98.6556 104° East 487 560 39,000  Level Houston Center
Tue 10:09:40 AM 30.9986 -98.4994 105° East 494 568 39,000  Level Houston Center
Tue 10:10:42 AM 30.9592 -98.3167 104° East 493 567 39,000  Level Houston Center
Tue 10:11:44 AM 30.9233 -98.1603 105° East 495 570 39,000 -145 Level Houston Center
Tue 10:12:46 AM 30.8892 -98.0053 104° East 494 568 38,700 -629 Descending Houston Center
Tue 10:13:48 AM 30.8542 -97.8500 105° East 493 567 37,700 -919 Descending Houston Center
Tue 10:14:50 AM 30.8194 -97.6925 104° East 497 572 36,800 -1,016 Descending Houston Center
Tue 10:15:52 AM 30.7833 -97.5358 105° East 500 575 35,600 -1,839 Descending Houston Center
Tue 10:16:54 AM 30.7408 -97.3533 105° East 504 580 33,000 -1,935 Descending Houston Center
Tue 10:17:56 AM 30.7072 -97.1992 104° East 498 573 31,600 -2,323 Descending Houston Center
Tue 10:18:58 AM 30.6717 -97.0422 105° East 501 577 28,200 -2,952 Descending Houston Center
Tue 10:20:00 AM 30.6361 -96.8861 105° East 493 567 25,500 -2,146 Descending Houston Center
Tue 10:21:01 AM 30.6028 -96.7422 105° East 462 532 23,800 -1,984 Descending Houston Center
Tue 10:22:04 AM 30.5494 -96.6181 116° Southeast 428 493 21,400 -2,441 Descending Houston Center
Tue 10:22:59 AM 30.4669 -96.5225 135° Southeast 398 458 19,000 -2,328 Descending Houston Center
Tue 10:24:00 AM 30.3900 -96.4269 133° Southeast 390 449 16,900 -2,153 Descending Houston Center
Tue 10:25:10 AM 30.3072 -96.3278 134° Southeast 380 437 14,300 -2,410 Descending Houston Center
Tue 10:26:02 AM 30.2431 -96.2500 134° Southeast 372 428 12,000 -1,737 Descending Houston Center
Tue 10:27:04 AM 30.1572 -96.1797 145° Southeast 352 405 11,000 -541 Descending Houston Center
Tue 10:27:53 AM 30.0847 -96.1422 156° South 353 406 11,000  Level Houston Center
Tue 10:28:16 AM 30.0525 -96.1256 156° South 352 405 11,000  Level Houston Center
Tue 10:29:00 AM 29.9836 -96.0883 155° Southeast 353 406 11,000  Level Houston Center
Tue 10:29:18 AM 29.9628 -96.0775 156° South 353 406 11,000  Level Houston Center
Tue 10:30:01 AM 29.8936 -96.0408 155° Southeast 354 407 11,000  Level Houston Center
Tue 10:30:20 AM 29.8739 -96.0292 153° Southeast 352 405 11,000 -98 Level Houston Center
Tue 10:31:02 AM 29.8350 -95.9706 127° Southeast 283 326 10,900 -290 Descending Houston Center
Tue 10:31:22 AM 29.8269 -95.9567 124° Southeast 298 343 10,700 -985 Descending Houston Center
Tue 10:32:09 AM 29.7875 -95.8819 121° Southeast 286 329 9,800 -968 Descending Houston Center
Tue 10:32:24 AM 29.7844 -95.8786 137° Southeast 289 333 9,700 -1,071 Descending Houston Center
Tue 10:33:05 AM 29.7472 -95.8072 121° Southeast 296 341 8,800 -1,161 Descending Houston Center
Tue 10:33:26 AM 29.7306 -95.7858 132° Southeast 293 337 8,500 -1,000 Descending Houston Center
Tue 10:34:05 AM 29.6800 -95.7814 176° South 269 310 7,800 -968 Descending Houston Center
Tue 10:34:28 AM 29.6575 -95.7761 168° South 268 308 7,500 -1,065 Descending Houston Center
Tue 10:35:07 AM 29.6372 -95.7264 115° Southeast 256 295 6,700 -1,065 Descending Houston Center
Tue 10:35:30 AM 29.6372 -95.7025 90° East 253 291 6,400 -689 Descending Houston Center
Tue 10:36:08 AM 29.6425 -95.6439 84° East 249 287 6,000 -387 Descending Houston Center
Tue 10:36:32 AM 29.6467 -95.6231 77° East 252 290 6,000 -689 Level Houston Center
Tue 10:37:09 AM 29.6825 -95.5744 50° Northeast 265 305 5,300 -1,065 Descending Houston Center
Tue 10:37:34 AM 29.6947 -95.5622 41° Northeast 262 302 4,900 -1,254 Descending Houston Center
Tue 10:38:16 AM 29.7422 -95.5144 41° Northeast 266 306 3,900 -1,161 Descending Houston Center
Tue 10:38:36 AM 29.7514 -95.5061 38° Northeast 267 307 3,700 -492 Descending Houston Center
Tue 10:39:17 AM 29.7958 -95.4597 42° Northeast 228 262 3,400 -387 Descending Houston Center
Tue 10:39:38 AM 29.7975 -95.4414 84° East 225 259 3,300 -393 Descending Houston Center
Tue 10:40:18 AM 29.7683 -95.4103 137° Southeast 196 226 3,000 -290 Descending Houston Center
Tue 10:40:40 AM 29.7561 -95.3992 142° Southeast 200 230 3,000 -545 Level Houston Center
Tue 10:41:13 AM 29.7294 -95.3764 143° Southeast 195 224 2,500 -952 Descending Houston Center
Tue 10:41:43 AM 29.7139 -95.3608 139° Southeast 195 224 2,000 -689 Descending Houston Center
Tue 10:42:14 AM 29.6944 -95.3372 133° Southeast 146 168 1,800 -871 Descending Houston Center
Tue 10:42:45 AM 29.6847 -95.3258 134° Southeast 157 181 1,100 -1,082 Descending Houston Center
Tue 10:43:15 AM 29.6686 -95.3067 134° Southeast 130 150 700 -677 Descending Houston Center
Tue 10:43:47 AM 29.6600 -95.2972 136° Southeast 133 153 400 -383 Descending Houston Center
Tue 10:44:49 AM 29.6306 -95.2628 135° Southeast 131 151 100 -290 Descending Houston Center

Login

Don't have an account? Register now (free) for customized features, flight alerts, and more!